.
WxDataArchive / Data Records for 2007-10-18
2007-10-17 October 2007 2007-10-19

Data Records for Thursday, 18 October 2007

Time	Temp	Chill	HIndex	Humid	Dewpt	 Wind 	HiWind	WindDir	Rain 	Barom 
-----	----	-----	------	-----	-----	------	------	-------	-----	----- 
00:00	66.8	66.8	66.8	84	61.8	1	5	90	0.00	29.693 
00:05	66.9	66.9	66.9	83	61.6	2	5	90	0.00	29.692 
00:10	66.9	66.9	66.9	83	61.6	1	4	158	0.00	29.692 
00:15	67.1	67.1	67.1	83	61.8	1	5	112	0.00	29.692 
00:20	67.1	67.1	67.1	82	61.4	1	5	90	0.00	29.694 
00:25	67.3	67.3	67.3	82	61.6	2	4	135	0.00	29.695 
00:30	67.6	67.6	67.6	82	61.9	2	5	68	0.00	29.695 
00:35	67.6	67.6	67.6	83	62.2	2	6	112	0.00	29.695 
00:40	67.6	67.6	67.6	83	62.2	2	5	112	0.00	29.694 
00:45	67.4	67.4	67.4	84	62.4	1	5	90	0.00	29.695 
00:50	67.3	67.3	67.3	85	62.6	1	4	90	0.00	29.692 
00:55	66.9	66.9	66.9	86	62.6	2	5	112	0.01	29.690 
01:00	66.8	66.8	66.8	87	62.8	1	3	90	0.00	29.683 
01:05	66.4	66.4	66.4	88	62.7	1	3	90	0.00	29.686 
01:10	66.3	66.3	66.3	89	63.0	1	4	112	0.01	29.686 
01:15	66.1	66.1	66.1	90	63.1	1	4	90	0.00	29.680 
01:20	66.0	66.0	66.0	90	63.0	1	2	135	0.01	29.677 
01:25	65.8	65.8	65.8	91	63.1	1	5	112	0.00	29.667 
01:30	65.6	65.6	65.6	91	62.9	1	3	112	0.00	29.663 
01:35	65.6	65.6	65.6	92	63.2	1	3	45	0.00	29.658 
01:40	65.5	65.5	65.5	92	63.1	0	1	68	0.00	29.654 
01:45	65.3	65.3	65.3	92	62.9	1	4	90	0.00	29.648 
01:50	65.3	65.3	65.3	92	62.9	1	3	90	0.00	29.644 
01:55	65.3	65.3	65.3	92	62.9	1	3	90	0.00	29.635 
02:00	65.3	65.3	65.3	92	62.9	1	3	90	0.00	29.632 
02:05	65.2	65.2	65.2	92	62.8	1	2	90	0.00	29.631 
02:10	65.2	65.2	65.2	92	62.8	1	5	90	0.00	29.628 
02:15	65.2	65.2	65.2	92	62.8	2	5	90	0.00	29.627 
02:20	65.2	65.2	65.2	92	62.8	1	3	112	0.00	29.620 
02:25	65.2	65.2	65.2	92	62.8	0	3	112	0.00	29.626 
02:30	65.2	65.2	65.2	92	62.8	1	4	112	0.00	29.630 
02:35	65.2	65.2	65.2	92	62.8	1	3	112	0.00	29.625 
02:40	65.2	65.2	65.2	91	62.5	0	2	135	0.00	29.620 
02:45	65.3	65.3	65.3	91	62.6	1	4	90	0.00	29.617 
02:50	65.3	65.3	65.3	91	62.6	1	4	90	0.01	29.616 
02:55	65.3	65.3	65.3	91	62.6	1	4	90	0.00	29.614 
03:00	65.5	65.5	65.5	91	62.8	1	5	135	0.01	29.607 
03:05	65.3	65.3	65.3	91	62.6	1	3	112	0.01	29.606 
03:10	65.3	65.3	65.3	91	62.6	1	3	112	0.01	29.604 
03:15	65.3	65.3	65.3	92	62.9	1	4	90	0.00	29.603 
03:20	65.2	65.2	65.2	92	62.8	1	4	112	0.01	29.600 
03:25	65.2	65.2	65.2	92	62.8	1	6	90	0.00	29.597 
03:30	65.2	65.2	65.2	92	62.8	1	3	112	0.00	29.595 
03:35	65.0	65.0	65.0	92	62.6	1	5	135	0.01	29.593 
03:40	65.0	65.0	65.0	92	62.6	0	2	112	0.01	29.593 
03:45	65.0	65.0	65.0	92	62.6	1	4	112	0.02	29.595 
03:50	64.8	64.8	64.8	93	62.7	1	2	135	0.01	29.591 
03:55	64.8	64.8	64.8	93	62.7	1	3	112	0.01	29.587 
04:00	64.7	64.7	64.7	93	62.6	0	2	112	0.02	29.586 
04:05	64.7	64.7	64.7	93	62.6	1	5	112	0.02	29.579 
04:10	64.5	64.5	64.5	94	62.7	1	3	90	0.02	29.573 
04:15	64.5	64.5	64.5	94	62.7	1	3	112	0.02	29.573 
04:20	64.3	64.3	64.3	94	62.5	2	4	112	0.01	29.571 
04:25	64.3	64.3	64.3	94	62.5	2	4	90	0.02	29.572 
04:30	64.3	64.3	64.3	94	62.5	1	6	135	0.03	29.577 
04:35	64.2	64.2	64.2	95	62.7	2	5	90	0.02	29.556 
04:40	64.2	64.2	64.2	95	62.7	1	3	112	0.06	29.556 
04:45	64.2	64.2	64.2	95	62.7	2	11	90	0.00	29.549 
04:50	64.2	64.2	64.2	95	62.7	2	7	90	0.00	29.543 
04:55	64.2	64.2	64.2	95	62.7	2	6	112	0.01	29.541 
05:00	64.2	64.2	64.2	95	62.7	3	10	90	0.01	29.540 
05:05	64.2	64.2	64.2	95	62.7	3	11	90	0.00	29.543 
05:10	64.2	64.2	64.2	95	62.7	3	9	112	0.01	29.544 
05:15	64.3	64.3	64.3	95	62.8	3	11	112	0.00	29.544 
05:20	64.5	64.5	64.5	94	62.7	4	10	90	0.00	29.539 
05:25	64.5	64.5	64.5	94	62.7	3	11	90	0.00	29.533 
05:30	64.7	64.7	64.7	94	62.9	6	12	90	0.01	29.528 
05:35	65.0	65.0	65.0	93	62.9	4	14	90	0.00	29.528 
05:40	65.0	65.0	65.0	93	62.9	3	7	90	0.00	29.525 
05:45	65.0	65.0	65.0	93	62.9	3	9	90	0.00	29.523 
05:50	65.2	65.2	65.2	92	62.8	3	11	90	0.00	29.520 
05:55	65.3	65.3	65.3	92	62.9	4	11	90	0.00	29.519 
06:00	65.5	65.5	65.5	91	62.8	4	11	112	0.00	29.514 
06:05	65.6	65.6	65.6	91	62.9	3	12	90	0.00	29.520 
06:10	65.6	65.6	65.6	90	62.6	3	7	90	0.00	29.521 
06:15	65.8	65.8	65.8	90	62.8	3	7	112	0.00	29.522 
06:20	65.8	65.8	65.8	90	62.8	4	13	112	0.00	29.525 
06:25	66.0	66.0	66.0	89	62.7	4	11	90	0.00	29.525 
06:30	66.1	66.1	66.1	88	62.4	4	10	112	0.00	29.524 
06:35	66.1	66.1	66.1	88	62.4	3	7	112	0.00	29.525 
06:40	66.1	66.1	66.1	88	62.4	2	10	112	0.00	29.522 
06:45	66.1	66.1	66.1	88	62.4	4	11	112	0.00	29.521 
06:50	66.3	66.3	66.3	87	62.3	4	10	90	0.00	29.522 
06:55	66.4	66.4	66.4	87	62.4	3	7	90	0.00	29.514 
07:00	66.4	66.4	66.4	87	62.4	3	9	112	0.00	29.512 
07:05	66.6	66.6	66.6	87	62.6	2	5	90	0.00	29.515 
07:10	66.6	66.6	66.6	86	62.3	4	9	90	0.00	29.511 
07:15	66.8	66.8	66.8	86	62.5	4	10	90	0.00	29.514 
07:20	66.6	66.6	66.6	87	62.6	3	12	90	0.00	29.516 
07:25	66.6	66.6	66.6	88	62.9	3	10	90	0.00	29.524 
07:30	66.4	66.4	66.4	89	63.1	2	7	90	0.01	29.522 
07:35	66.1	66.1	66.1	90	63.1	3	13	45	0.03	29.521 
07:40	66.0	66.0	66.0	91	63.3	3	16	90	0.00	29.511 
07:45	65.8	65.8	65.8	91	63.1	3	11	68	0.01	29.511 
07:50	65.8	65.8	65.8	92	63.4	4	11	90	0.00	29.506 
07:55	65.8	65.8	65.8	92	63.4	3	9	90	0.00	29.503 
08:00	65.8	65.8	65.8	92	63.4	3	10	112	0.00	29.505 
08:05	65.8	65.8	65.8	92	63.4	3	8	90	0.00	29.507 
08:10	65.8	65.8	65.8	92	63.4	3	10	90	0.00	29.504 
08:15	65.8	65.8	65.8	92	63.4	4	12	90	0.01	29.507 
08:20	66.0	66.0	66.0	92	63.6	4	10	112	0.00	29.500 
08:25	66.0	66.0	66.0	92	63.6	4	14	90	0.00	29.500 
08:30	66.0	66.0	66.0	91	63.3	3	9	90	0.00	29.503 
08:35	66.0	66.0	66.0	91	63.3	5	11	90	0.00	29.498 
08:40	66.1	66.1	66.1	91	63.4	4	10	90	0.00	29.500 
08:45	66.3	66.3	66.3	91	63.6	4	12	90	0.00	29.496 
08:50	66.4	66.4	66.4	90	63.4	4	16	90	0.00	29.507 
08:55	66.6	66.6	66.6	89	63.3	5	12	90	0.00	29.503 
09:00	66.6	66.6	66.6	89	63.3	3	9	90	0.00	29.502 
09:05	66.8	66.8	66.8	89	63.4	5	12	90	0.00	29.499 
09:10	66.9	66.9	66.9	88	63.2	3	11	90	0.00	29.500 
09:15	67.1	67.1	67.1	88	63.4	4	12	112	0.00	29.498 
09:20	67.4	67.4	67.4	88	63.7	4	10	90	0.00	29.498 
09:25	67.8	67.8	67.8	88	64.1	3	9	90	0.00	29.494 
09:30	67.9	67.9	67.9	87	63.9	5	12	90	0.00	29.493 
09:35	67.9	67.9	67.9	86	63.5	3	9	112	0.00	29.495 
09:40	68.3	68.3	68.3	86	63.9	3	11	112	0.00	29.493 
09:45	68.3	68.3	68.3	85	63.6	3	9	90	0.00	29.493 
09:50	68.6	68.6	68.6	84	63.6	3	11	90	0.00	29.492 
09:55	68.8	68.8	68.8	84	63.8	3	9	112	0.00	29.492 
10:00	68.9	68.9	68.9	84	63.9	4	13	90	0.00	29.492 
10:05	69.1	69.1	69.1	83	63.7	4	13	90	0.00	29.489 
10:10	69.1	69.1	69.1	83	63.7	3	11	90	0.00	29.491 
10:15	69.3	69.3	69.3	82	63.6	4	14	112	0.00	29.487 
10:20	69.3	69.3	69.3	82	63.6	4	11	90	0.00	29.482 
10:25	69.4	69.4	69.4	81	63.3	3	12	90	0.00	29.484 
10:30	69.6	69.6	69.6	82	63.9	3	11	68	0.00	29.486 
10:35	69.4	69.4	69.4	82	63.7	3	12	270	0.00	29.487 
10:40	69.6	69.6	69.6	82	63.9	3	12	90	0.00	29.485 
10:45	69.8	69.8	69.8	81	63.7	3	7	292	0.00	29.485 
10:50	69.9	69.9	69.9	81	63.8	3	10	90	0.00	29.486 
10:55	69.9	69.9	69.9	81	63.8	2	6	315	0.00	29.485 
11:00	69.9	69.9	69.9	81	63.8	2	9	0	0.00	29.485 
11:05	70.1	70.1	70.1	80	63.6	3	9	90	0.00	29.478 
11:10	70.3	70.3	70.3	80	63.8	3	7	90	0.00	29.476 
11:15	70.3	70.3	70.3	80	63.8	2	7	270	0.00	29.476 
11:20	70.4	70.4	70.4	80	63.9	2	10	0	0.00	29.476 
11:25	70.4	70.4	70.4	81	64.3	2	5	68	0.00	29.477 
11:30	70.4	70.4	70.4	80	63.9	3	16	90	0.00	29.477 
11:35	70.4	70.4	70.4	81	64.3	2	7	68	0.00	29.476 
11:40	70.4	70.4	70.4	81	64.3	2	7	270	0.00	29.475 
11:45	70.4	70.4	70.4	81	64.3	2	6	90	0.00	29.473 
11:50	70.6	70.6	70.6	81	64.5	4	17	112	0.00	29.471 
11:55	70.8	70.8	70.8	81	64.7	3	5	90	0.00	29.470 
12:00	70.9	70.9	70.9	81	64.8	3	7	68	0.00	29.468 
12:05	71.1	71.1	71.1	81	65.0	2	5	90	0.00	29.464 
12:10	71.3	71.3	71.3	80	64.8	2	8	22	0.00	29.465 
12:15	71.5	71.5	71.5	80	65.0	3	10	90	0.00	29.463 
12:20	72.0	72.0	72.0	79	65.1	3	11	68	0.00	29.460 
12:25	72.5	72.5	72.5	79	65.6	2	11	45	0.00	29.458 
12:30	73.0	73.0	73.0	78	65.7	2	7	45	0.00	29.456 
12:35	73.2	73.2	73.2	77	65.5	2	6	90	0.00	29.454 
12:40	73.5	73.5	73.5	76	65.5	4	15	90	0.00	29.450 
12:45	73.9	73.9	73.9	76	65.8	2	8	112	0.00	29.450 
12:50	73.9	73.9	73.9	75	65.5	4	12	90	0.00	29.450 
12:55	73.9	73.9	73.9	75	65.5	4	7	90	0.00	29.444 
13:00	73.9	73.9	73.9	76	65.8	3	9	90	0.00	29.445 
13:05	74.0	74.0	74.0	75	65.6	2	5	68	0.00	29.447 
13:10	74.6	74.6	74.6	75	66.1	3	11	90	0.00	29.443 
13:15	75.1	75.1	76.5	73	65.8	3	12	90	0.00	29.440 
13:20	75.4	75.4	76.8	73	66.1	2	7	225	0.00	29.438 
13:25	75.8	75.8	77.4	70	65.3	4	12	90	0.00	29.431 
13:30	76.1	76.1	77.8	69	65.2	2	10	22	0.00	29.427 
13:35	76.5	76.5	78.3	65	63.8	4	13	90	0.00	29.423 
13:40	76.5	76.5	78.3	66	64.3	5	15	90	0.00	29.424 
13:45	76.3	76.3	78.1	67	64.5	4	13	90	0.00	29.426 
13:50	76.5	76.5	78.3	65	63.8	4	13	68	0.00	29.423 
13:55	76.7	76.7	78.5	64	63.6	4	11	90	0.00	29.421 
14:00	77.0	77.0	78.8	64	63.9	3	11	270	0.00	29.420 
14:05	77.2	77.2	79.0	63	63.6	3	7	68	0.00	29.421 
14:10	77.4	77.4	79.2	62	63.3	3	9	292	0.00	29.416 
14:15	77.7	77.7	79.4	62	63.6	3	6	292	0.00	29.415 
14:20	77.9	77.9	79.6	61	63.3	3	9	292	0.00	29.414 
14:25	78.1	78.1	79.8	61	63.5	3	12	270	0.00	29.417 
14:30	78.1	78.1	79.8	61	63.5	4	14	270	0.00	29.420 
14:35	78.3	78.3	79.9	59	62.8	4	17	270	0.00	29.419 
14:40	78.3	78.3	79.9	59	62.8	4	12	270	0.00	29.422 
14:45	78.1	78.1	79.7	58	62.1	3	12	270	0.00	29.422 
14:50	77.7	77.7	79.3	58	61.7	3	10	270	0.00	29.423 
14:55	77.9	77.9	79.5	58	61.9	4	12	270	0.00	29.421 
15:00	78.1	78.1	79.6	56	61.1	5	14	270	0.00	29.422 
15:05	78.1	78.1	79.6	57	61.6	3	10	270	0.00	29.421 
15:10	78.1	78.1	79.6	57	61.6	2	10	225	0.00	29.420 
15:15	78.3	78.3	79.8	57	61.8	2	11	248	0.00	29.417 
15:20	78.3	78.3	79.7	55	60.8	4	17	270	0.00	29.419 
15:25	77.9	77.9	79.4	55	60.4	3	11	68	0.00	29.412 
15:30	78.1	78.1	79.5	55	60.6	3	11	270	0.00	29.412 
15:35	78.3	78.3	79.7	55	60.8	4	10	270	0.00	29.413 
15:40	78.3	78.3	79.7	55	60.8	3	12	90	0.00	29.410 
15:45	78.1	78.1	79.5	54	60.1	3	10	270	0.00	29.410 
15:50	78.1	78.1	79.5	55	60.6	2	12	270	0.00	29.410 
15:55	78.1	78.1	79.6	56	61.1	1	6	248	0.00	29.409 
16:00	78.3	78.3	79.8	56	61.3	2	7	270	0.00	29.408 
16:05	78.5	78.5	79.9	56	61.5	2	6	22	0.00	29.409 
16:10	78.1	78.1	79.6	56	61.1	4	12	90	0.00	29.408 
16:15	77.6	77.6	79.2	57	61.1	3	8	68	0.00	29.406 
16:20	77.4	77.4	79.1	57	61.0	3	13	90	0.00	29.406 
16:25	77.2	77.2	78.9	57	60.8	3	7	68	0.00	29.407 
16:30	77.4	77.4	79.1	58	61.4	3	9	45	0.00	29.405 
16:35	77.4	77.4	79.1	57	61.0	2	10	315	0.00	29.404 
16:40	77.4	77.4	79.1	57	61.0	2	7	90	0.00	29.405 
16:45	77.2	77.2	78.9	57	60.8	2	6	90	0.00	29.404 
16:50	77.4	77.4	79.1	57	61.0	3	6	90	0.00	29.403 
16:55	77.4	77.4	79.1	58	61.4	3	9	90	0.00	29.402 
17:00	77.2	77.2	78.9	58	61.3	1	5	112	0.00	29.407 
17:05	77.0	77.0	78.8	59	61.6	3	7	90	0.00	29.405 
17:10	77.0	77.0	78.8	59	61.6	3	12	90	0.00	29.405 
17:15	76.8	76.8	78.6	59	61.4	2	6	90	0.00	29.406 
17:20	76.7	76.7	78.5	59	61.3	3	7	90	0.00	29.404 
17:25	76.5	76.5	78.4	60	61.6	3	9	45	0.00	29.403 
17:30	76.3	76.3	78.2	60	61.4	2	5	90	0.00	29.403 
17:35	76.3	76.3	78.2	60	61.4	2	6	90	0.00	29.402 
17:40	76.1	76.1	78.1	60	61.2	2	5	90	0.00	29.398 
17:45	76.0	76.0	78.0	60	61.1	2	7	90	0.00	29.397 
17:50	75.8	75.8	77.9	60	60.9	2	6	135	0.00	29.396 
17:55	75.6	75.6	77.7	60	60.7	2	4	112	0.00	29.396 
18:00	75.4	75.4	77.6	60	60.5	2	5	112	0.00	29.395 
18:05	75.3	75.3	77.5	61	60.9	2	6	90	0.00	29.394 
18:10	75.1	75.1	77.3	62	61.2	2	6	112	0.00	29.393 
18:15	74.9	74.9	74.9	63	61.4	2	5	90	0.00	29.391 
18:20	74.7	74.7	74.7	64	61.7	2	7	90	0.00	29.390 
18:25	74.7	74.7	74.7	64	61.7	2	4	112	0.00	29.386 
18:30	74.7	74.7	74.7	64	61.7	4	12	90	0.00	29.387 
18:35	74.7	74.7	74.7	64	61.7	3	7	112	0.00	29.385 
18:40	74.6	74.6	74.6	64	61.6	2	7	112	0.00	29.387 
18:45	74.4	74.4	74.4	65	61.8	2	5	112	0.00	29.386 
18:50	74.2	74.2	74.2	65	61.7	2	5	90	0.00	29.380 
18:55	74.2	74.2	74.2	65	61.7	3	6	112	0.00	29.380 
19:00	74.0	74.0	74.0	65	61.5	3	9	90	0.00	29.379 
19:05	74.0	74.0	74.0	66	61.9	3	7	90	0.00	29.376 
19:10	73.9	73.9	73.9	66	61.8	3	7	90	0.00	29.376 
19:15	73.7	73.7	73.7	67	62.0	3	6	112	0.00	29.372 
19:20	73.7	73.7	73.7	68	62.5	3	8	112	0.00	29.376 
19:25	73.7	73.7	73.7	68	62.5	4	13	90	0.00	29.376 
19:30	73.9	73.9	73.9	68	62.7	4	13	90	0.00	29.375 
19:35	73.7	73.7	73.7	68	62.5	4	9	112	0.00	29.375 
19:40	73.9	73.9	73.9	68	62.7	4	13	90	0.00	29.369 
19:45	73.9	73.9	73.9	68	62.7	3	11	90	0.00	29.370 
19:50	73.9	73.9	73.9	68	62.7	4	13	68	0.00	29.365 
19:55	73.9	73.9	73.9	68	62.7	4	12	90	0.00	29.365 
20:00	73.9	73.9	73.9	68	62.7	4	11	90	0.00	29.366 
20:05	73.7	73.7	73.7	69	62.9	4	10	90	0.00	29.360 
20:10	73.5	73.5	73.5	69	62.7	4	15	90	0.00	29.350 
20:15	73.3	73.3	73.3	69	62.5	5	14	90	0.00	29.347 
20:20	73.3	73.3	73.3	69	62.5	4	13	90	0.00	29.346 
20:25	73.2	73.2	73.2	70	62.8	4	15	90	0.00	29.342 
20:30	73.0	73.0	73.0	71	63.0	3	10	112	0.00	29.340 
20:35	73.0	73.0	73.0	71	63.0	5	12	112	0.00	29.337 
20:40	73.0	73.0	73.0	71	63.0	4	14	90	0.00	29.333 
20:45	73.2	73.2	73.2	71	63.2	5	14	112	0.00	29.317 
20:50	73.2	73.2	73.2	72	63.6	4	10	90	0.00	29.323 
20:55	73.2	73.2	73.2	72	63.6	4	11	90	0.00	29.304 
21:00	73.2	73.2	73.2	72	63.6	3	12	90	0.00	29.311 
21:05	73.2	73.2	73.2	73	64.0	4	11	90	0.00	29.302 
21:10	73.2	73.2	73.2	73	64.0	6	15	90	0.00	29.308 
21:15	73.2	73.2	73.2	73	64.0	4	11	112	0.00	29.321 
21:20	73.3	73.3	73.3	73	64.1	5	13	90	0.00	29.314 
21:25	73.3	73.3	73.3	73	64.1	5	13	90	0.00	29.311 
21:30	73.5	73.5	73.5	72	63.9	6	16	90	0.00	29.301 
21:35	73.5	73.5	73.5	73	64.3	4	10	90	0.00	29.315 
21:40	73.5	73.5	73.5	73	64.3	4	10	112	0.00	29.318 
21:45	73.5	73.5	73.5	72	63.9	5	13	90	0.00	29.315 
21:50	73.5	73.5	73.5	73	64.3	4	14	90	0.00	29.317 
21:55	73.5	73.5	73.5	73	64.3	3	18	90	0.00	29.319 
22:00	73.5	73.5	73.5	73	64.3	4	12	90	0.00	29.330 
22:05	73.7	73.7	73.7	72	64.1	4	9	90	0.00	29.328 
22:10	73.7	73.7	73.7	72	64.1	5	11	90	0.00	29.332 
22:15	73.5	73.5	73.5	73	64.3	4	9	90	0.00	29.331 
22:20	73.5	73.5	73.5	73	64.3	3	11	90	0.00	29.329 
22:25	73.3	73.3	73.3	73	64.1	4	14	90	0.00	29.327 
22:30	73.2	73.2	73.2	73	64.0	3	8	90	0.00	29.329 
22:35	73.0	73.0	73.0	74	64.2	3	6	90	0.00	29.320 
22:40	73.0	73.0	73.0	74	64.2	4	13	90	0.00	29.314 
22:45	72.8	72.8	72.8	75	64.4	4	10	90	0.00	29.315 
22:50	72.5	72.5	72.5	76	64.5	3	13	90	0.00	29.313 
22:55	72.5	72.5	72.5	76	64.5	3	13	90	0.00	29.316 
23:00	72.8	72.8	72.8	74	64.0	5	13	270	0.00	29.315 
23:05	73.0	73.0	73.0	73	63.8	4	7	270	0.00	29.315 
23:10	73.0	73.0	73.0	71	63.0	4	10	248	0.00	29.327 
23:15	73.2	73.2	73.2	71	63.2	2	7	248	0.00	29.329 
23:20	73.0	73.0	73.0	71	63.0	3	6	248	0.00	29.324 
23:25	73.0	73.0	73.0	71	63.0	2	5	270	0.00	29.324 
23:30	72.8	72.8	72.8	71	62.8	3	7	270	0.00	29.316 
23:35	72.8	72.8	72.8	71	62.8	4	11	248	0.00	29.313 
23:40	72.7	72.7	72.7	71	62.7	3	12	248	0.00	29.311 
23:45	72.7	72.7	72.7	71	62.7	2	7	270	0.00	29.310 
23:50	72.7	72.7	72.7	71	62.7	2	10	248	0.00	29.308 
23:55	72.3	72.3	72.3	71	62.4	2	7	248	0.00	29.299 

CoCoRaHS
IN-AL-39
A2 Web Hosting
Creative Commons License
GoDaddy
Look for:

loaded 2017-12-12 17:04:11 • last modified 2010-11-18 10:43:29
Privacy PolicyDisclaimer
• wx.awcolley.com is powered by PmWiki v.2002016 •
• all content (unless otherwise noted) © 2017 A W Colley